Barbourville, KY (40906)

9:47 PM EDT on April 25, 2015 (GMT -0400)
liford's | | Change Station
CLOSE
Current Station
Personal Weather Station
Location: Barbourville, KY
Elevation: 1066 ft
Nearby Weather Stations
Active Advisory: Severe Thunderstorm Watch

Elev 1066 ft 36.84 °N, 83.85 °W | Updated 4 minutes ago

Clear
Clear
67.3 °F
Feels Like 67.3 °F
N
0.0
Wind Variable Wind from NNE

Today
High -- | Low -- °F
--% Chance of Precip.
Yesterday
High -- | Low -- °F
Precip. -- in
6:48 AM 8:18 PM
Waxing Crescent, 51% visible
Pressure 29.47 in
Visibility 10.0 miles
Clouds Few 7000 ft
Dew Point 56 °F
Humidity 68%
Rainfall 0.00 in
Snow Depth Not available.
UV 0 out of 12
Pollen 4.80 out of 12
Air Quality Not available.
Flu Activity Local Activity
METAR KLOZ 260053Z AUTO 00000KT 10SM FEW070 23/09 A2949 RMK AO2 LTG DSNT NW-NE SLP978 T02280094

More Conditions Fewer Conditions

Pressure 29.47 in
Visibility 10.0 miles
Clouds Few 7000 ft
Dew Point 56 °F
Humidity 68%
Rainfall 0.00 in
Snow Depth Not available.
UV 0 out of 12
Pollen 4.80 out of 12
Air Quality Not available.
Flu Activity Local Activity
METAR KLOZ 260053Z AUTO 00000KT 10SM FEW070 23/09 A2949 RMK AO2 LTG DSNT NW-NE SLP978 T02280094

More Conditions Fewer Conditions

10-Day Weather Forecast

Almanac

Astronomy

Apr. 25, 2015 Rise Set
Actual Time
Civil Twilight
Nautical Twilight
Astronomical Twilight
Moon
Length of Visible Light
Length of Day
Tomorrow will be .
, % of the Moon is Illuminated

Today's Extremes

State Highs State Lows

Community

WunderPhotos

Upload Photos

1,816,893 photos uploaded!

WunderBlogs® & News

Nearby

Air Quality

  Air Quality AQ Index Pollutant
Not available.

Snow Depth

Station Depth Elevation

Earthquake Activity

City Distance Mag. Time & Date
Minimum magnitude displayed is 2.5.

Coastal Water Temperatures

Place Temperature

Stations

Nearby Weather Stations

Station Location Temp. Windchill Dew Point Humidity Wind Precip. Elev Updated Type
                   
Severe Thunderstorm Watch
Statement as of 9:43 PM EDT on April 25, 2015

Severe Thunderstorm Watch 116 remains in effect until 1100 PM EDT
for the following locations


KY
. Kentucky counties included are

Adair Allen Barren
Bell Casey Clay
Clinton Cumberland Harlan
Jackson Knox Laurel
Leslie Lincoln McCreary
Metcalfe Monroe Pulaski
Rockcastle Russell Wayne
Whitley